»·PEaware :: GFSEA KBFI-KOTH

GFSEA :: KBFI-KOTH

FLIGHT INFORMATION

Flight Status: Arrived
Operator: Unknown
More flights by this operator :: More flights under this callsign
Pilot: Matthew M. (8235)
Aircraft: BOEING 737-300
(B733)
More flights by this aircraft type
Origin: KBFI Boeing Field/King Co Intl
United States
Destination: KOTH North Bend Mun
United States
More flights between these airports :: More routes between these airports
Route: +NRVNA1 BUWZO BTG J136 ONP V182 OTH
File this flight plan on PilotEdge
Remarks: PBN / A1B3B4B5D3D4 DOF / 180610 PER / C
Altitude:
(Current/Filed)
36,000ft
Speed:
(Current/Filed)
428kts
Departed: 09-Jun-18 05:15 PM
Arrived: 09-Jun-18 06:13 PM
Distance/Time
Traveled:
260nm/0:58
Distance/Time
To Go:
Arrived

Flight Plot

Page will automatically refresh every two minutes.

Flight plan parsing failed; only flown route is shown


Map Options




Map Legend


Flown Route
Filed Route
Departure Airport
Arrival Airport
Navaid (VOR, NDB)
Fix

Horizontal Profiles

Position Reports

Time Latitude Longitude Heading Altitude Ground
Speed
09-Jun-18 16:50 47.535470 -122.309888 240 22ft 0kts
09-Jun-18 16:51 47.535470 -122.309888 240 22ft 0kts
09-Jun-18 16:52 47.535470 -122.309888 240 22ft 0kts
09-Jun-18 16:53 47.535470 -122.309888 240 22ft 0kts
09-Jun-18 16:54 47.535470 -122.309888 240 22ft 0kts
09-Jun-18 16:55 47.535470 -122.309888 240 22ft 0kts
09-Jun-18 16:56 47.535470 -122.309888 240 22ft 0kts
09-Jun-18 16:57 47.535470 -122.309888 240 22ft 0kts
09-Jun-18 16:58 47.535470 -122.309888 240 22ft 0kts
09-Jun-18 16:59 47.535470 -122.309888 240 22ft 0kts
09-Jun-18 17:00 47.535470 -122.309888 240 22ft 0kts
09-Jun-18 17:01 47.535470 -122.309888 240 22ft 0kts
09-Jun-18 17:02 47.535470 -122.309888 240 22ft 0kts
09-Jun-18 17:03 47.535470 -122.309888 240 22ft 0kts
09-Jun-18 17:04 47.535470 -122.309888 240 22ft 0kts
09-Jun-18 17:05 47.535470 -122.309888 240 22ft 0kts
09-Jun-18 17:06 47.535470 -122.309888 240 22ft 0kts
09-Jun-18 17:07 47.535470 -122.309888 240 22ft 0kts
09-Jun-18 17:08 47.535470 -122.309888 240 22ft 0kts
09-Jun-18 17:09 47.535470 -122.309888 240 22ft 0kts
09-Jun-18 17:10 47.535469 -122.309888 240 22ft 0kts
09-Jun-18 17:11 47.535538 -122.310654 320 22ft 10kts
09-Jun-18 17:12 47.539427 -122.313403 60 22ft 23kts
09-Jun-18 17:13 47.539839 -122.312321 60 22ft 1kts
09-Jun-18 17:14 47.539713 -122.310691 147 22ft 11kts
09-Jun-18 17:15 47.523617 -122.297188 151 709ft 166kts
09-Jun-18 17:16 47.473825 -122.255001 150 2063ft 245kts
09-Jun-18 17:17 47.412517 -122.203288 150 3494ft 274kts
09-Jun-18 17:18 47.357510 -122.185732 212 7679ft 277kts
09-Jun-18 17:19 47.287625 -122.218583 192 11265ft 321kts
09-Jun-18 17:20 47.202075 -122.242185 192 15129ft 344kts
09-Jun-18 17:21 47.120095 -122.264404 192 18426ft 357kts
09-Jun-18 17:22 47.026644 -122.289607 192 21676ft 371kts
09-Jun-18 17:23 46.932067 -122.314468 192 23018ft 377kts
09-Jun-18 17:24 46.834532 -122.337619 192 23597ft 381kts
09-Jun-18 17:25 46.733489 -122.361640 192 26381ft 393kts
09-Jun-18 17:26 46.627642 -122.386721 191 28824ft 407kts
09-Jun-18 17:27 46.521332 -122.411793 191 31557ft 404kts
09-Jun-18 17:28 46.422227 -122.435089 191 34069ft 396kts
09-Jun-18 17:29 46.320893 -122.458824 191 35991ft 396kts
09-Jun-18 17:30 46.212886 -122.484023 191 36108ft 397kts
09-Jun-18 17:31 46.107132 -122.508603 191 36102ft 396kts
09-Jun-18 17:32 46.000299 -122.533334 191 36104ft 396kts
09-Jun-18 17:33 45.898977 -122.556702 191 36104ft 396kts
09-Jun-18 17:34 45.800220 -122.579309 191 36110ft 396kts
09-Jun-18 17:35 45.708177 -122.639929 223 36122ft 395kts
09-Jun-18 17:36 45.631119 -122.741593 221 36106ft 394kts
09-Jun-18 17:37 45.554918 -122.839302 221 36098ft 394kts
09-Jun-18 17:38 45.477486 -122.938112 221 36091ft 395kts
09-Jun-18 17:39 45.456162 -122.965258 222 36092ft 396kts
09-Jun-18 17:40 45.423791 -123.006380 222 36093ft 397kts
09-Jun-18 17:41 45.342210 -123.109751 223 36102ft 404kts
09-Jun-18 17:42 45.263295 -123.209362 223 36115ft 405kts
09-Jun-18 17:43 45.182199 -123.311329 223 36111ft 405kts
09-Jun-18 17:44 45.100663 -123.413438 224 36119ft 404kts
09-Jun-18 17:45 45.018827 -123.515524 226 36137ft 401kts
09-Jun-18 17:46 44.936887 -123.617356 227 36160ft 404kts
09-Jun-18 17:47 44.855937 -123.717461 226 36181ft 404kts
09-Jun-18 17:48 44.774106 -123.818265 227 36195ft 404kts
09-Jun-18 17:49 44.692964 -123.917907 227 34800ft 405kts
09-Jun-18 17:50 44.609358 -124.020184 226 31349ft 410kts
09-Jun-18 17:51 44.510740 -124.070067 185 28402ft 428kts
09-Jun-18 17:52 44.398711 -124.077298 189 25899ft 404kts
09-Jun-18 17:53 44.293177 -124.087150 189 24216ft 380kts
09-Jun-18 17:54 44.202135 -124.095649 189 23388ft 332kts
09-Jun-18 17:55 44.107269 -124.104677 188 18965ft 367kts
09-Jun-18 17:56 44.014950 -124.113241 187 16963ft 350kts
09-Jun-18 17:57 43.927649 -124.121357 187 14985ft 339kts
09-Jun-18 17:58 43.843863 -124.129076 187 13095ft 326kts
09-Jun-18 17:59 43.758771 -124.136903 187 11199ft 310kts
09-Jun-18 18:00 43.685186 -124.143646 187 10969ft 246kts
09-Jun-18 18:01 43.624890 -124.149239 188 9564ft 236kts
09-Jun-18 18:02 43.573835 -124.111311 108 8078ft 251kts
09-Jun-18 18:03 43.548714 -124.037235 130 6985ft 242kts
09-Jun-18 18:04 43.507494 -123.981504 152 5878ft 233kts
09-Jun-18 18:05 43.453257 -123.948835 175 4704ft 213kts
09-Jun-18 18:06 43.408685 -123.968958 245 3878ft 172kts
09-Jun-18 18:07 43.410997 -124.024316 282 3277ft 145kts
09-Jun-18 18:08 43.413320 -124.077911 270 2669ft 141kts
09-Jun-18 18:09 43.414599 -124.129394 270 2332ft 131kts
09-Jun-18 18:10 43.415731 -124.173862 271 1803ft 107kts
09-Jun-18 18:11 43.429681 -124.209640 288 881ft 106kts
09-Jun-18 18:12 43.421188 -124.244782 243 21ft 99kts
09-Jun-18 18:13 43.415704 -124.255159 66 11ft 18kts
09-Jun-18 18:14 43.417409 -124.249349 167 11ft 9kts
09-Jun-18 18:15 43.416811 -124.249063 209 11ft 0kts
09-Jun-18 18:16 43.416811 -124.249063 209 11ft 0kts
09-Jun-18 18:17 43.416811 -124.249063 209 11ft 0kts

Navigation Log

Ident Type
Flight plan parsing failed, navigation log unavailable